Time;durP1;ratioP1;P1;durP2;ratioP2;P2;SDS_P1;SDS_P2;PMS_P1;PMS_P2;Temp;Humidity;BMP_temperature;BMP_pressure;BME280_temperature;BME280_humidity;BME280_pressure;Samples;Min_cycle;Max_cycle;Signal;HPM_P1;HPM_P2
2023/08/23 00:00:11;;;;;;;6.88;5.10;;;;;;;-145.00;53.55;72422.59;5069855;28;20063;-71
2023/08/23 00:02:38;;;;;;;6.93;5.10;;;;;;;-145.00;53.63;72422.59;5069956;28;20045;-71
2023/08/23 00:05:05;;;;;;;7.28;5.00;;;;;;;-145.00;53.58;72420.53;5069781;28;20048;-70
2023/08/23 00:07:33;;;;;;;6.78;5.07;;;;;;;-145.00;54.23;72418.44;5070523;28;20059;-70
2023/08/23 00:09:59;;;;;;;6.38;5.10;;;;;;;-145.00;53.67;72420.53;5069513;28;20078;-71
2023/08/23 00:12:26;;;;;;;7.00;4.95;;;;;;;-145.00;53.80;72420.53;5069558;28;20518;-71
2023/08/23 00:14:52;;;;;;;6.88;5.55;;;;;;;-145.00;54.06;72414.28;5070304;28;20044;-70
2023/08/23 00:17:19;;;;;;;6.35;5.22;;;;;;;-145.00;53.89;72420.53;5069401;28;20052;-70
2023/08/23 00:19:46;;;;;;;6.05;5.07;;;;;;;-145.00;54.17;72418.44;5070244;28;20507;-71
2023/08/23 00:22:12;;;;;;;5.78;5.18;;;;;;;-145.00;54.00;72416.34;5069897;28;20079;-70
2023/08/23 00:24:40;;;;;;;6.70;4.88;;;;;;;-145.00;54.01;72430.94;5070133;28;20040;-70
2023/08/23 00:27:07;;;;;;;7.65;5.28;;;;;;;-145.00;54.43;72447.59;5069658;28;20066;-71
2023/08/23 00:29:33;;;;;;;7.20;4.90;;;;;;;-145.00;54.93;72464.22;5069794;28;20044;-71
2023/08/23 00:32:00;;;;;;;7.13;5.55;;;;;;;-145.00;54.60;72474.63;5069960;28;20040;-71
2023/08/23 00:34:26;;;;;;;10.73;6.07;;;;;;;-145.00;54.65;72491.28;5069594;28;20051;-70
2023/08/23 00:36:53;;;;;;;10.68;5.82;;;;;;;-145.00;54.51;72464.22;5069961;28;20047;-71
2023/08/23 00:39:19;;;;;;;8.95;5.68;;;;;;;-145.00;54.47;72458.00;5069147;28;20432;-71
2023/08/23 00:41:47;;;;;;;7.00;5.35;;;;;;;-145.00;54.59;72453.81;5069637;28;20116;-71
2023/08/23 00:44:14;;;;;;;6.35;5.15;;;;;;;-145.00;55.19;72455.91;5068974;28;20049;-70
2023/08/23 00:46:41;;;;;;;10.57;5.90;;;;;;;-145.00;55.39;72501.69;5069582;28;20054;-71
2023/08/23 00:49:08;;;;;;;8.80;6.00;;;;;;;-145.00;55.80;72512.09;5069271;28;20420;-70
2023/08/23 00:51:35;;;;;;;10.38;5.80;;;;;;;-145.00;55.04;72489.22;5069748;28;20565;-70
2023/08/23 00:54:03;;;;;;;8.65;6.45;;;;;;;-145.00;54.78;72480.88;5069494;28;20052;-70
2023/08/23 00:56:30;;;;;;;9.45;6.05;;;;;;;-145.00;55.01;72497.53;5069587;28;20055;-70
2023/08/23 00:58:59;;;;;;;8.20;6.68;;;;;;;-145.00;55.19;72518.34;5068862;28;20076;-71
2023/08/23 01:01:25;;;;;;;7.38;5.97;;;;;;;-145.00;55.09;72518.34;5069130;28;20040;-70
2023/08/23 01:03:52;;;;;;;6.93;5.43;;;;;;;-145.00;54.72;72503.78;5069567;28;20051;-70
2023/08/23 01:06:30;;;;;;;9.52;6.03;;;;;;;-145.00;54.95;72489.22;5069174;28;20048;-70
2023/08/23 01:09:02;;;;;;;7.63;6.05;;;;;;;-145.00;55.26;72480.88;5068591;28;20079;-70
2023/08/23 01:11:36;;;;;;;8.63;5.05;;;;;;;-145.00;55.42;72480.88;5069416;28;20119;-70
2023/08/23 01:14:05;;;;;;;6.88;5.13;;;;;;;-145.00;54.87;72480.88;5068993;28;20059;-71
2023/08/23 01:16:33;;;;;;;7.40;5.60;;;;;;;-145.00;54.46;72476.72;5069675;28;20425;-70
2023/08/23 01:19:04;;;;;;;8.65;6.15;;;;;;;-145.00;54.60;72485.06;5068801;28;20047;-71
2023/08/23 01:21:36;;;;;;;11.52;5.65;;;;;;;-145.00;55.08;72503.78;5068829;28;20389;-70
2023/08/23 01:24:08;;;;;;;8.57;5.70;;;;;;;-145.00;55.71;72535.00;5068808;28;20055;-70
2023/08/23 01:26:36;;;;;;;32.17;8.93;;;;;;;-145.00;61.91;72622.44;5069464;28;20064;-71
2023/08/23 01:29:03;;;;;;;18.95;9.13;;;;;;;-145.00;65.83;72684.88;5068563;28;20044;-72
2023/08/23 01:31:33;;;;;;;24.13;10.32;;;;;;;-145.00;71.64;72791.06;5069355;28;20124;-72
2023/08/23 01:34:10;;;;;;;16.63;8.70;;;;;;;-145.00;72.73;72803.53;5069519;28;20044;-72
2023/08/23 01:36:41;;;;;;;12.75;8.77;;;;;;;-145.00;73.16;72801.47;5068967;28;20044;-72
2023/08/23 01:39:10;;;;;;;15.40;9.45;;;;;;;-145.00;74.60;72822.28;5068768;28;20040;-71
2023/08/23 01:41:37;;;;;;;16.63;10.50;;;;;;;-145.00;75.80;72813.94;5069141;28;20048;-72
2023/08/23 01:44:05;;;;;;;17.70;11.15;;;;;;;-145.00;77.03;72834.78;5068857;28;20102;-71
2023/08/23 01:46:31;;;;;;;14.15;10.50;;;;;;;-145.00;77.90;72809.78;5069375;28;20048;-72
2023/08/23 01:48:58;;;;;;;14.77;10.70;;;;;;;-145.00;78.78;72797.31;5065504;28;20140;-72
2023/08/23 01:51:24;;;;;;;14.00;10.88;;;;;;;-145.00;80.08;72843.09;5068837;28;20565;-72
2023/08/23 01:53:51;;;;;;;16.10;10.35;;;;;;;-145.00;80.17;72841.00;5070055;28;20045;-72
2023/08/23 01:56:19;;;;;;;19.83;12.30;;;;;;;-145.00;80.04;72813.94;5069374;28;20060;-73
2023/08/23 01:58:46;;;;;;;20.98;12.82;;;;;;;-145.00;81.09;72816.03;5068869;28;20048;-72
2023/08/23 02:01:12;;;;;;;19.98;12.45;;;;;;;-145.00;81.82;72816.03;5067846;28;20052;-73
2023/08/23 02:03:42;;;;;;;21.77;14.55;;;;;;;-145.00;85.38;72884.72;5068470;28;20041;-72
2023/08/23 02:06:08;;;;;;;19.80;14.02;;;;;;;-145.00;86.99;72897.22;5068446;28;20044;-72
2023/08/23 02:08:35;;;;;;;20.30;14.25;;;;;;;-145.00;87.66;72897.22;5068629;28;20043;-72
2023/08/23 02:11:02;;;;;;;23.98;15.57;;;;;;;-145.00;86.64;72901.38;5068364;28;20078;-71
2023/08/23 02:13:30;;;;;;;20.23;13.55;;;;;;;-145.00;85.80;72874.31;5069228;28;20055;-72
2023/08/23 02:15:56;;;;;;;17.13;13.30;;;;;;;-145.00;84.97;72863.91;5068105;28;20132;-71
2023/08/23 02:18:23;;;;;;;20.33;16.40;;;;;;;-145.00;85.07;72863.91;5067998;28;20049;-72
2023/08/23 02:20:55;;;;;;;17.52;14.48;;;;;;;-145.00;84.96;72859.75;5068906;28;20045;-72
2023/08/23 02:23:22;;;;;;;22.03;14.87;;;;;;;-145.00;83.93;72843.09;5068896;28;20056;-72
2023/08/23 02:25:48;;;;;;;18.88;14.98;;;;;;;-145.00;84.05;72832.69;5068830;28;20044;-72
2023/08/23 02:28:15;;;;;;;21.85;17.20;;;;;;;-145.00;83.83;72838.94;5068224;28;20051;-72
2023/08/23 02:30:43;;;;;;;16.33;13.00;;;;;;;-145.00;84.14;72838.94;5068897;28;20120;-72
2023/08/23 02:33:09;;;;;;;18.67;13.63;;;;;;;-145.00;83.56;72822.28;5070775;28;20055;-72
2023/08/23 02:35:41;;;;;;;22.20;14.57;;;;;;;-145.00;82.76;72824.38;5075161;28;20115;-72
2023/08/23 02:38:08;;;;;;;18.88;13.82;;;;;;;-145.00;82.74;72822.28;5066449;28;20048;-72
2023/08/23 02:40:34;;;;;;;22.77;14.18;;;;;;;-145.00;82.46;72816.03;5074908;28;20063;-72
2023/08/23 02:43:01;;;;;;;17.52;13.57;;;;;;;-145.00;82.11;72818.13;5074394;28;20120;-72
2023/08/23 02:45:27;;;;;;;17.50;13.55;;;;;;;-145.00;82.63;72811.88;5073719;28;20097;-72
2023/08/23 02:47:55;;;;;;;17.02;13.60;;;;;;;-145.00;82.62;72807.72;5073277;28;20048;-72
2023/08/23 02:50:22;;;;;;;18.45;13.85;;;;;;;-145.00;82.38;72799.38;5072980;28;20056;-72
2023/08/23 02:52:48;;;;;;;16.13;13.05;;;;;;;-145.00;82.62;72801.47;5072134;28;20550;-72
2023/08/23 02:55:15;;;;;;;17.65;13.10;;;;;;;-145.00;82.47;72803.53;5071326;28;20392;-72
2023/08/23 02:57:42;;;;;;;19.50;13.70;;;;;;;-145.00;82.37;72797.31;5071522;28;20036;-72
2023/08/23 03:00:09;;;;;;;18.60;13.57;;;;;;;-145.00;82.85;72809.78;5071191;28;20037;-71
2023/08/23 03:02:36;;;;;;;17.75;13.40;;;;;;;-145.00;82.94;72816.03;5071966;28;20056;-71
2023/08/23 03:05:04;;;;;;;19.23;15.13;;;;;;;-145.00;83.68;72847.25;5071525;28;20046;-71
2023/08/23 03:07:31;;;;;;;24.17;16.23;;;;;;;-145.00;83.81;72851.44;5071615;28;20051;-71
2023/08/23 03:09:57;;;;;;;20.92;14.98;;;;;;;-145.00;83.09;72851.44;5071854;28;20116;-71
2023/08/23 03:12:24;;;;;;;21.88;15.57;;;;;;;-145.00;81.32;72880.56;5071378;28;20071;-72
2023/08/23 03:14:50;;;;;;;25.25;15.02;;;;;;;-145.00;81.99;72888.91;5071360;28;20143;-72
2023/08/23 03:17:17;;;;;;;27.17;15.43;;;;;;;-145.00;83.53;72903.47;5071677;28;20131;-73
2023/08/23 03:19:43;;;;;;;27.25;16.23;;;;;;;-145.00;84.62;72899.31;5072386;28;20044;-72
2023/08/23 03:22:11;;;;;;;20.95;15.52;;;;;;;-145.00;84.28;72897.22;5071999;28;20041;-72
2023/08/23 03:24:38;;;;;;;18.92;15.07;;;;;;;-145.00;84.76;72888.91;5072376;28;20055;-72
2023/08/23 03:27:05;;;;;;;20.10;14.80;;;;;;;-145.00;84.89;72890.97;5071762;28;20044;-72
2023/08/23 03:29:31;;;;;;;19.25;14.50;;;;;;;-145.00;84.37;72880.56;5071620;28;20086;-72
2023/08/23 03:31:58;;;;;;;20.08;14.52;;;;;;;-145.00;84.85;72878.50;5071604;28;20048;-71
2023/08/23 03:34:24;;;;;;;17.38;13.93;;;;;;;-145.00;85.24;72863.91;5072211;28;20058;-71
2023/08/23 03:36:51;;;;;;;16.83;14.23;;;;;;;-145.00;85.04;72872.25;5072067;28;20047;-73
2023/08/23 03:39:19;;;;;;;19.20;14.02;;;;;;;-145.00;85.11;72872.25;5071718;28;20068;-72
2023/08/23 03:41:47;;;;;;;19.05;14.05;;;;;;;-145.00;85.04;72876.41;5072890;28;20129;-72
2023/08/23 03:44:14;;;;;;;18.35;14.27;;;;;;;-145.00;85.01;72886.81;5072087;28;20068;-71
2023/08/23 03:46:40;;;;;;;21.77;15.73;;;;;;;-145.00;85.29;72886.81;5074147;28;20040;-71
2023/08/23 03:49:07;;;;;;;19.08;13.77;;;;;;;-145.00;85.61;72888.91;5073912;28;20045;-73
2023/08/23 03:51:33;;;;;;;24.15;15.43;;;;;;;-145.00;85.22;72893.06;5074227;28;20056;-73
2023/08/23 03:54:00;;;;;;;24.02;14.32;;;;;;;-145.00;84.56;72897.22;5074403;28;20136;-72
2023/08/23 03:56:28;;;;;;;20.95;13.82;;;;;;;-145.00;84.73;72895.16;5073901;28;20130;-72
2023/08/23 03:58:56;;;;;;;20.00;14.13;;;;;;;-145.00;84.99;72890.97;5074755;28;20167;-72
2023/08/23 04:01:22;;;;;;;18.23;13.43;;;;;;;-145.00;85.17;72897.22;5074366;28;20040;-73
2023/08/23 04:03:49;;;;;;;20.27;15.23;;;;;;;-145.00;85.38;72913.88;5073667;28;20140;-72
2023/08/23 04:06:15;;;;;;;21.92;14.50;;;;;;;-145.00;85.97;72955.50;5071776;28;20044;-71
2023/08/23 04:08:42;;;;;;;17.92;15.27;;;;;;;-145.00;87.40;72990.91;5071999;28;20040;-72
2023/08/23 04:11:09;;;;;;;21.38;16.23;;;;;;;-145.00;88.27;73011.72;5071392;28;20127;-72
2023/08/23 04:13:37;;;;;;;20.83;14.15;;;;;;;-145.00;87.22;72984.66;5071691;28;20048;-71
2023/08/23 04:16:04;;;;;;;19.88;14.07;;;;;;;-145.00;86.14;72972.16;5071264;28;20050;-71
2023/08/23 04:18:30;;;;;;;19.13;14.10;;;;;;;-145.00;85.64;72963.84;5071102;28;20043;-71
2023/08/23 04:21:00;;;;;;;20.48;15.23;;;;;;;-145.00;85.41;72951.34;5070465;28;20076;-71
2023/08/23 04:23:27;;;;;;;17.80;15.35;;;;;;;-145.00;85.24;72949.28;5069627;28;20139;-71
2023/08/23 04:25:54;;;;;;;22.52;16.15;;;;;;;-145.00;85.29;72938.88;5068992;28;20045;-71
2023/08/23 04:28:20;;;;;;;21.75;16.42;;;;;;;-145.00;86.06;72955.50;5069755;28;20136;-71
2023/08/23 04:30:48;;;;;;;18.77;13.98;;;;;;;-145.00;86.17;72968.00;5069905;28;20039;-71
2023/08/23 04:33:15;;;;;;;23.42;15.90;;;;;;;-145.00;85.57;72943.03;5069126;28;20046;-71
2023/08/23 04:35:42;;;;;;;23.85;18.50;;;;;;;-145.00;85.89;72945.09;5070027;28;20040;-71
2023/08/23 04:38:10;;;;;;;24.38;17.70;;;;;;;-145.00;87.43;72990.91;5069293;28;20554;-71
2023/08/23 04:40:37;;;;;;;19.17;15.02;;;;;;;-145.00;87.54;72982.59;5070008;28;20048;-71
2023/08/23 04:43:04;;;;;;;18.52;14.73;;;;;;;-145.00;87.08;72984.66;5069324;28;20070;-71
2023/08/23 04:45:31;;;;;;;20.05;15.68;;;;;;;-145.00;86.03;72955.50;5070160;28;20051;-71
2023/08/23 04:47:59;;;;;;;19.20;15.00;;;;;;;-145.00;85.19;72945.09;5070337;28;20047;-71
2023/08/23 04:50:25;;;;;;;20.52;16.05;;;;;;;-145.00;85.20;72932.63;5069529;28;20040;-71
2023/08/23 04:52:52;;;;;;;22.02;15.65;;;;;;;-145.00;84.53;72930.53;5069706;28;20119;-72
2023/08/23 04:55:19;;;;;;;23.92;17.73;;;;;;;-145.00;86.07;72965.94;5069901;28;20049;-72
2023/08/23 04:57:46;;;;;;;18.25;14.90;;;;;;;-145.00;86.38;72947.19;5069544;28;20044;-72
2023/08/23 05:00:13;;;;;;;21.70;18.40;;;;;;;-145.00;87.01;72988.81;5068947;28;20040;-72
2023/08/23 05:02:40;;;;;;;23.08;16.13;;;;;;;-145.00;85.93;72955.50;5069199;28;20056;-71
2023/08/23 05:05:08;;;;;;;23.55;16.80;;;;;;;-145.00;85.22;72934.69;5069207;28;20044;-72
2023/08/23 05:07:35;;;;;;;22.23;17.08;;;;;;;-145.00;85.12;72920.13;5071134;28;20047;-72
2023/08/23 05:10:04;;;;;;;21.70;17.38;;;;;;;-145.00;84.46;72920.13;5070567;28;20048;-70
2023/08/23 05:12:30;;;;;;;21.70;16.73;;;;;;;-145.00;84.75;72913.88;5070915;28;20048;-72
2023/08/23 05:14:57;;;;;;;20.63;16.55;;;;;;;-145.00;84.76;72905.56;5070279;28;20048;-72
2023/08/23 05:17:23;;;;;;;27.52;19.15;;;;;;;-145.00;85.16;72920.13;5069942;28;20041;-72
2023/08/23 05:19:50;;;;;;;27.65;20.38;;;;;;;-145.00;86.55;72968.00;5070252;28;20411;-71
2023/08/23 05:22:18;;;;;;;24.40;18.40;;;;;;;-145.00;86.22;72951.34;5060953;28;20048;-71
2023/08/23 05:24:44;;;;;;;22.63;17.00;;;;;;;-145.00;85.89;72943.03;5070300;28;20051;-72
2023/08/23 05:27:11;;;;;;;23.45;17.02;;;;;;;-145.00;85.01;72922.22;5069759;28;20048;-72
2023/08/23 05:29:37;;;;;;;27.55;18.80;;;;;;;-145.00;85.89;72951.34;5070214;28;20045;-71
2023/08/23 05:32:04;;;;;;;26.55;19.95;;;;;;;-145.00;85.58;72951.34;5069380;28;20051;-71
2023/08/23 05:34:31;;;;;;;18.33;15.82;;;;;;;-145.00;84.89;72940.94;5069616;28;20045;-71
2023/08/23 05:36:57;;;;;;;22.02;17.65;;;;;;;-145.00;84.54;72930.53;5069674;28;20055;-72
2023/08/23 05:39:25;;;;;;;25.92;20.13;;;;;;;-145.00;85.30;72949.28;5068907;28;20063;-72
2023/08/23 05:41:52;;;;;;;24.95;16.92;;;;;;;-145.00;85.19;72934.69;5069082;28;20045;-71
2023/08/23 05:44:18;;;;;;;24.08;17.50;;;;;;;-145.00;84.39;72920.13;5068824;28;20041;-71
2023/08/23 05:46:45;;;;;;;28.77;20.58;;;;;;;-145.00;84.89;72930.53;5069227;28;20041;-72
2023/08/23 05:49:11;;;;;;;23.45;18.20;;;;;;;-145.00;85.77;72951.34;5068847;28;20386;-71
2023/08/23 05:51:38;;;;;;;23.33;18.08;;;;;;;-145.00;86.65;72955.50;5068694;28;20055;-71
2023/08/23 05:54:05;;;;;;;22.17;17.38;;;;;;;-145.00;86.64;72963.84;5068951;28;20055;-71
2023/08/23 05:56:33;;;;;;;24.13;18.80;;;;;;;-145.00;86.28;72953.44;5069356;28;20044;-72
2023/08/23 05:59:00;;;;;;;22.27;18.10;;;;;;;-145.00;86.05;72959.69;5069149;28;20064;-72
2023/08/23 06:01:26;;;;;;;23.35;17.23;;;;;;;-145.00;85.45;72955.50;5068386;28;20036;-72
2023/08/23 06:03:53;;;;;;;21.98;17.00;;;;;;;-145.00;84.24;72947.19;5069343;28;20044;-71
2023/08/23 06:06:19;;;;;;;24.25;17.50;;;;;;;-145.00;84.47;72959.69;5069375;28;20037;-71
2023/08/23 06:08:46;;;;;;;21.02;15.20;;;;;;;-145.00;85.18;72955.50;5073120;28;20046;-71
2023/08/23 06:11:12;;;;;;;17.48;14.65;;;;;;;-145.00;84.42;72926.38;5072422;28;20047;-72
2023/08/23 06:13:42;;;;;;;21.42;15.45;;;;;;;-145.00;84.00;72899.31;5072949;28;20569;-70
2023/08/23 06:16:09;;;;;;;21.42;15.65;;;;;;;-145.00;83.99;72878.50;5072390;28;20071;-72
2023/08/23 06:18:35;;;;;;;23.25;17.40;;;;;;;-145.00;83.87;72897.22;5072886;28;20049;-71
2023/08/23 06:21:02;;;;;;;20.98;16.10;;;;;;;-145.00;84.97;72934.69;5071463;28;20135;-70
2023/08/23 06:23:28;;;;;;;16.63;13.93;;;;;;;-145.00;84.47;72897.22;5071560;28;20051;-70
2023/08/23 06:25:58;;;;;;;20.92;14.43;;;;;;;-145.00;84.45;72886.81;5072473;28;20045;-71
2023/08/23 06:28:30;;;;;;;20.83;15.05;;;;;;;-145.00;84.43;72901.38;5071674;28;20045;-72
2023/08/23 06:30:58;;;;;;;21.05;15.60;;;;;;;-145.00;84.99;72922.22;5071712;28;20079;-70
2023/08/23 06:33:24;;;;;;;22.17;16.42;;;;;;;-145.00;85.31;72936.78;5064135;28;20041;-70
2023/08/23 06:35:51;;;;;;;17.10;13.02;;;;;;;-145.00;85.41;72926.38;5071410;28;20514;-70
2023/08/23 06:38:17;;;;;;;18.27;13.60;;;;;;;-145.00;84.62;72915.97;5071783;28;20050;-71
2023/08/23 06:40:44;;;;;;;17.52;12.50;;;;;;;-145.00;84.08;72905.56;5072562;28;20040;-70
2023/08/23 06:43:18;;;;;;;17.20;13.68;;;;;;;-145.00;83.50;72907.63;5071639;28;20045;-70
2023/08/23 06:45:45;;;;;;;17.40;13.75;;;;;;;-145.00;83.63;72899.31;5072241;28;20055;-70
2023/08/23 06:48:13;;;;;;;17.17;12.23;;;;;;;-145.00;82.87;72876.41;5071346;28;20040;-70
2023/08/23 06:50:39;;;;;;;18.23;13.15;;;;;;;-145.00;82.20;72876.41;5071995;28;20044;-70
2023/08/23 06:53:06;;;;;;;14.77;11.38;;;;;;;-145.00;81.50;72836.84;5071835;28;20048;-70
2023/08/23 06:55:33;;;;;;;12.85;11.25;;;;;;;-145.00;81.48;72820.19;5071942;28;20033;-70
2023/08/23 06:57:59;;;;;;;14.70;11.95;;;;;;;-145.00;81.60;72805.63;5071996;28;20834;-71
2023/08/23 07:00:27;;;;;;;16.10;13.05;;;;;;;-145.00;80.82;72784.81;5071432;28;20042;-70
2023/08/23 07:02:53;;;;;;;17.48;12.07;;;;;;;-145.00;80.01;72766.06;5071830;28;20052;-70
2023/08/23 07:05:21;;;;;;;13.40;11.52;;;;;;;-145.00;80.50;72755.66;5070838;28;20055;-70
2023/08/23 07:07:48;;;;;;;15.95;11.23;;;;;;;-145.00;80.73;72751.50;5071674;28;20052;-70
2023/08/23 07:10:14;;;;;;;15.52;12.07;;;;;;;-145.00;80.70;72743.19;5071264;28;20052;-70
2023/08/23 07:12:41;;;;;;;24.20;14.57;;;;;;;-145.00;80.47;72761.91;5071934;28;20467;-70
2023/08/23 07:15:08;;;;;;;15.23;11.65;;;;;;;-145.00;77.55;72780.66;5070837;28;20136;-70
2023/08/23 07:17:36;;;;;;;13.50;10.30;;;;;;;-145.00;76.12;72809.78;5070385;28;20131;-71
2023/08/23 07:20:03;;;;;;;15.25;10.55;;;;;;;-145.00;76.53;72784.81;5068851;28;20052;-72
2023/08/23 07:22:31;;;;;;;15.63;10.90;;;;;;;-145.00;74.75;72770.25;5070570;28;20044;-72
2023/08/23 07:24:58;;;;;;;15.48;11.10;;;;;;;-145.00;77.80;72768.16;5071093;28;20049;-72
2023/08/23 07:27:24;;;;;;;13.27;9.40;;;;;;;-145.00;74.96;72797.31;5070655;28;20040;-71
2023/08/23 07:29:51;;;;;;;12.43;8.75;;;;;;;-145.00;74.44;72739.00;5071179;28;20033;-71
2023/08/23 07:32:17;;;;;;;13.13;9.40;;;;;;;-145.00;71.51;72670.31;5070422;28;20070;-71
2023/08/23 07:34:44;;;;;;;11.27;8.02;;;;;;;-145.00;68.50;72649.50;5070315;28;20570;-71
2023/08/23 07:37:10;;;;;;;8.82;7.30;;;;;;;-145.00;67.63;72543.34;5070742;28;20044;-71
2023/08/23 07:39:38;;;;;;;12.00;7.75;;;;;;;-145.00;63.80;72505.88;5071024;28;20064;-71
2023/08/23 07:42:05;;;;;;;10.38;7.60;;;;;;;-145.00;63.30;72430.94;5070668;28;20047;-71
2023/08/23 07:44:32;;;;;;;9.63;5.75;;;;;;;-145.00;59.06;72362.25;5070754;28;20037;-70
2023/08/23 07:46:58;;;;;;;8.20;5.93;;;;;;;-145.00;59.88;72324.78;5070669;28;20044;-70
2023/08/23 07:49:25;;;;;;;10.02;6.30;;;;;;;-145.00;60.22;72510.03;5070372;28;20721;-71
2023/08/23 07:51:51;;;;;;;8.88;5.93;;;;;;;-145.00;61.65;72405.94;5070722;28;20051;-71
2023/08/23 07:54:18;;;;;;;8.65;5.75;;;;;;;-145.00;58.55;72474.63;5070035;28;20125;-71
2023/08/23 07:56:46;;;;;;;7.55;5.60;;;;;;;-145.00;57.58;72443.41;5068323;28;20054;-71
2023/08/23 07:59:12;;;;;;;7.85;6.15;;;;;;;-145.00;58.18;72391.38;5068421;28;20041;-72
2023/08/23 08:01:39;;;;;;;10.60;7.30;;;;;;;-145.00;57.28;72364.31;5070293;28;20496;-72
2023/08/23 08:04:05;;;;;;;9.95;6.75;;;;;;;-145.00;59.33;72343.50;5069273;28;20048;-72
2023/08/23 08:06:32;;;;;;;10.13;7.60;;;;;;;-145.00;61.08;72414.28;5064184;28;20048;-72
2023/08/23 08:08:58;;;;;;;9.13;6.45;;;;;;;-145.00;59.85;72356.00;5070739;28;20044;-72
2023/08/23 08:11:25;;;;;;;8.70;5.70;;;;;;;-145.00;57.20;72266.50;5069135;28;20045;-72
2023/08/23 08:13:53;;;;;;;6.38;5.60;;;;;;;-145.00;57.37;72206.13;5070092;28;20052;-72
2023/08/23 08:16:19;;;;;;;9.45;6.45;;;;;;;-145.00;55.12;72251.91;5069454;28;20044;-71
2023/08/23 08:18:46;;;;;;;14.23;6.80;;;;;;;-145.00;55.13;72233.19;5069460;28;20037;-72
2023/08/23 08:21:12;;;;;;;9.27;5.80;;;;;;;-145.00;55.74;72214.44;5069812;28;20070;-73
2023/08/23 08:23:39;;;;;;;7.10;5.68;;;;;;;-145.00;53.93;72189.47;5069962;28;20514;-73
2023/08/23 08:26:06;;;;;;;9.93;5.60;;;;;;;-145.00;52.59;72118.72;5069906;28;20078;-74
2023/08/23 08:28:33;;;;;;;9.38;5.22;;;;;;;-145.00;52.09;72010.47;5069904;28;20102;-72
2023/08/23 08:31:01;;;;;;;5.82;5.10;;;;;;;-145.00;48.74;71950.13;5068228;28;20049;-72
2023/08/23 08:33:27;;;;;;;6.65;4.60;;;;;;;-145.00;50.10;71927.22;5069522;28;20044;-72
2023/08/23 08:35:54;;;;;;;9.18;5.45;;;;;;;-145.00;46.08;71893.91;5070002;28;20041;-72
2023/08/23 08:38:22;;;;;;;11.02;5.45;;;;;;;-145.00;48.73;71941.78;5069438;28;20051;-73
2023/08/23 08:40:49;;;;;;;8.00;4.78;;;;;;;-145.00;48.00;71968.84;5069409;28;20037;-72
2023/08/23 08:43:16;;;;;;;7.10;5.32;;;;;;;-145.00;49.34;72052.09;5069323;28;20040;-72
2023/08/23 08:45:43;;;;;;;8.75;4.78;;;;;;;-145.00;47.57;71981.34;5069668;28;20037;-72
2023/08/23 08:48:11;;;;;;;8.13;4.82;;;;;;;-145.00;47.81;71948.03;5067539;28;20056;-73
2023/08/23 08:50:38;;;;;;;6.53;5.03;;;;;;;-145.00;49.34;71935.56;5063532;28;20047;-72
2023/08/23 08:53:07;;;;;;;7.65;4.43;;;;;;;-145.00;46.25;71910.56;5069046;28;20044;-71
2023/08/23 08:55:36;;;;;;;6.25;4.18;;;;;;;-145.00;45.54;71912.66;5069430;28;20055;-71
2023/08/23 08:58:03;;;;;;;6.00;4.00;;;;;;;-145.00;45.48;71927.22;5069036;28;20514;-71
2023/08/23 09:00:32;;;;;;;7.13;3.80;;;;;;;-145.00;44.45;71885.59;5069217;28;20403;-72
2023/08/23 09:03:00;;;;;;;8.20;4.10;;;;;;;-145.00;46.18;71860.63;5069467;28;20106;-72
2023/08/23 09:05:28;;;;;;;8.55;3.70;;;;;;;-145.00;46.04;71852.28;5067856;28;20043;-73
2023/08/23 09:07:56;;;;;;;4.82;3.40;;;;;;;-145.00;46.50;71831.47;5069902;28;20151;-73
2023/08/23 09:10:23;;;;;;;5.82;3.97;;;;;;;-145.00;45.35;71868.94;5069091;28;20048;-74
2023/08/23 09:12:50;;;;;;;4.47;3.72;;;;;;;-145.00;45.04;71819.00;5069537;28;20045;-73
2023/08/23 09:15:19;;;;;;;9.05;3.97;;;;;;;-145.00;45.13;71831.47;5068946;28;20044;-72
2023/08/23 09:17:46;;;;;;;6.00;3.90;;;;;;;-145.00;43.42;71843.97;5067436;28;20118;-73
2023/08/23 09:20:12;;;;;;;5.43;4.10;;;;;;;-145.00;43.71;71808.59;5068749;28;20071;-75
2023/08/23 09:22:40;;;;;;;5.03;3.65;;;;;;;-145.00;43.79;71781.53;5069493;28;20045;-76
2023/08/23 09:25:08;;;;;;;4.97;3.95;;;;;;;-145.00;42.50;71748.22;5067933;28;20048;-72
2023/08/23 09:27:34;;;;;;;5.18;3.58;;;;;;;-145.00;42.18;71742.00;5068835;28;20051;-73
2023/08/23 09:30:04;;;;;;;6.55;4.22;;;;;;;-145.00;43.25;71727.41;5069247;28;20067;-73
2023/08/23 09:32:31;;;;;;;5.60;3.60;;;;;;;-145.00;43.60;71719.09;5069001;28;20098;-73
2023/08/23 09:34:58;;;;;;;7.75;4.22;;;;;;;-145.00;41.61;71785.69;5069251;28;20044;-73
2023/08/23 09:37:24;;;;;;;6.50;4.22;;;;;;;-145.00;41.53;71744.06;5068479;28;20500;-76
2023/08/23 09:39:52;;;;;;;5.50;3.63;;;;;;;-145.00;42.42;71731.59;5069528;28;20048;-74
2023/08/23 09:42:19;;;;;;;5.65;4.10;;;;;;;-145.00;42.47;71717.03;5071759;28;20045;-74
2023/08/23 09:44:48;;;;;;;7.60;3.97;;;;;;;-145.00;41.61;71714.94;5073181;28;20044;-73
2023/08/23 09:47:21;;;;;;;5.00;3.88;;;;;;;-145.00;41.35;71729.50;5072416;28;20040;-74
2023/08/23 09:49:48;;;;;;;;;;;;;;;-145.00;40.17;71739.91;5070195;28;20381;-74
2023/08/23 09:52:15;;;;;;;5.43;3.35;;;;;;;-145.00;41.66;71754.47;5072692;28;20390;-74
2023/08/23 09:54:51;;;;;;;7.25;3.65;;;;;;;-145.00;42.88;71735.75;5065132;28;20043;-71
2023/08/23 09:57:19;;;;;;;6.57;3.45;;;;;;;-145.00;41.38;71752.41;5072394;28;20040;-73
2023/08/23 09:59:47;;;;;;;6.80;3.55;;;;;;;-145.00;39.14;71744.06;5072655;28;20118;-74
2023/08/23 10:02:17;;;;;;;6.05;3.58;;;;;;;-145.00;41.26;71710.78;5072238;28;20040;-74
2023/08/23 10:04:44;;;;;;;4.97;3.45;;;;;;;-145.00;43.04;71673.31;5072879;28;20040;-75
2023/08/23 10:07:12;;;;;;;6.20;3.80;;;;;;;-145.00;39.41;71623.38;5072227;28;20128;-74
2023/08/23 10:09:39;;;;;;;5.47;3.80;;;;;;;-145.00;39.32;71635.84;5072979;28;20041;-74
2023/08/23 10:12:08;;;;;;;4.53;3.25;;;;;;;-145.00;40.75;71631.69;5071959;28;20407;-75
2023/08/23 10:14:41;;;;;;;8.60;3.92;;;;;;;-145.00;40.75;71704.53;5072134;28;20048;-73
2023/08/23 10:17:10;;;;;;;4.93;3.72;;;;;;;-145.00;40.55;71681.63;5072333;28;20500;-73
2023/08/23 10:19:37;;;;;;;4.43;3.55;;;;;;;-145.00;40.75;71662.91;5072454;28;20044;-73
2023/08/23 10:22:04;;;;;;;7.43;3.42;;;;;;;-145.00;40.70;71652.50;5072322;28;20118;-72
2023/08/23 10:24:32;;;;;;;6.15;3.47;;;;;;;-145.00;40.21;71644.19;5072378;28;20049;-73
2023/08/23 10:27:06;;;;;;;5.20;3.95;;;;;;;-145.00;39.44;71629.59;5072332;28;20059;-72
2023/08/23 10:29:33;;;;;;;4.45;3.72;;;;;;;-145.00;39.84;71623.38;5071930;28;20045;-73
2023/08/23 10:32:05;;;;;;;7.05;4.03;;;;;;;-145.00;40.97;71606.72;5072357;28;20041;-73
2023/08/23 10:34:35;;;;;;;6.72;4.50;;;;;;;-145.00;39.18;71627.53;5071873;28;20041;-73
2023/08/23 10:37:12;;;;;;;5.88;3.78;;;;;;;-145.00;38.68;71606.72;5071967;28;20548;-72
2023/08/23 10:39:39;;;;;;;6.40;4.30;;;;;;;-145.00;39.54;71631.69;5072173;28;20039;-72
2023/08/23 10:42:06;;;;;;;6.88;3.88;;;;;;;-145.00;40.34;71673.31;5070616;28;20148;-73
2023/08/23 10:44:32;;;;;;;6.97;4.05;;;;;;;-145.00;40.77;71677.47;5070679;28;20510;-73
2023/08/23 10:47:07;;;;;;;7.15;4.18;;;;;;;-145.00;40.76;71681.63;5071574;28;20058;-72
2023/08/23 10:49:34;;;;;;;8.63;4.68;;;;;;;-145.00;39.71;71685.81;5071630;28;20043;-73
2023/08/23 10:52:00;;;;;;;8.35;4.55;;;;;;;-145.00;39.84;71704.53;5071777;28;20055;-73
2023/08/23 10:54:29;;;;;;;7.38;4.25;;;;;;;-145.00;39.60;71719.09;5070149;28;20041;-74
2023/08/23 10:56:55;;;;;;;7.05;4.95;;;;;;;-145.00;40.99;71735.75;5071246;28;20043;-73
2023/08/23 10:59:22;;;;;;;6.97;5.40;;;;;;;-145.00;41.05;71785.69;5071321;28;20409;-73
2023/08/23 11:01:49;;;;;;;8.23;5.13;;;;;;;-145.00;40.90;71800.25;5071498;28;20047;-73
2023/08/23 11:04:18;;;;;;;7.35;4.60;;;;;;;-145.00;41.87;71806.50;5071299;28;20040;-74
2023/08/23 11:06:46;;;;;;;5.15;4.32;;;;;;;-145.00;41.46;71810.66;5071656;28;20066;-74
2023/08/23 11:09:12;;;;;;;7.53;4.70;;;;;;;-145.00;41.96;71829.41;5071489;28;20048;-74